Time;durP1;ratioP1;P1;durP2;ratioP2;P2;SDS_P1;SDS_P2;PMS_P1;PMS_P2;Temp;Humidity;BMP_temperature;BMP_pressure;BME280_temperature;BME280_humidity;BME280_pressure;Samples;Min_cycle;Max_cycle;Signal;HPM_P1;HPM_P2
2023/08/03 00:01:01;;;;;;;;;;;;;;;20.09;57.31;98869.47;5049306;27;109736;-73
2023/08/03 00:03:28;;;;;;;;;;;;;;;20.08;57.36;98877.72;5051170;27;109280;-73
2023/08/03 00:05:55;;;;;;;;;;;;;;;20.08;57.33;98888.47;5034842;27;123298;-72
2023/08/03 00:08:22;;;;;;;;;;;;;;;20.07;57.23;98884.13;5058869;27;124252;-72
2023/08/03 00:10:49;;;;;;;;;;;;;;;20.08;57.42;98888.47;5051769;27;109920;-72
2023/08/03 00:13:16;;;;;;;;;;;;;;;20.08;57.33;98893.84;5050654;27;108928;-72
2023/08/03 00:15:43;;;;;;;;;;;;;;;20.08;57.42;98889.31;5048272;27;125092;-72
2023/08/03 00:18:10;;;;;;;;;;;;;;;20.09;57.38;98887.47;5020179;27;122773;-72
2023/08/03 00:20:37;;;;;;;;;;;;;;;20.09;57.44;98884.78;5053741;27;109138;-72
2023/08/03 00:23:05;;;;;;;;;;;;;;;20.08;57.42;98893.84;5050445;27;109297;-73
2023/08/03 00:25:32;;;;;;;;;;;;;;;20.08;57.47;98894.69;5050341;27;124204;-73
2023/08/03 00:27:59;;;;;;;;;;;;;;;20.08;57.60;98907.28;5033568;27;125319;-72
2023/08/03 00:30:26;;;;;;;;;;;;;;;20.10;57.60;98910.63;5033932;27;109192;-74
2023/08/03 00:32:53;;;;;;;;;;;;;;;20.09;57.60;98904.41;5035579;27;108587;-74
2023/08/03 00:35:20;;;;;;;;;;;;;;;20.10;57.65;98918.69;5051167;27;123426;-72
2023/08/03 00:37:48;;;;;;;;;;;;;;;20.10;57.70;98913.31;5034515;27;123259;-74
2023/08/03 00:40:16;;;;;;;;;;;;;;;20.11;57.65;98909.63;5048267;27;109547;-74
2023/08/03 00:42:43;;;;;;;;;;;;;;;20.12;57.70;98922.88;5051184;27;109067;-74
2023/08/03 00:45:13;;;;;;;;;;;;;;;20.14;57.68;98922.72;5030896;27;123166;-73
2023/08/03 00:47:40;;;;;;;;;;;;;;;20.15;57.79;98937.81;5013874;27;123072;-73
2023/08/03 00:50:07;;;;;;;;;;;;;;;20.15;57.82;98943.19;5050700;27;109678;-73
2023/08/03 00:52:37;;;;;;;;;;;;;;;20.16;57.71;98947.56;5051935;27;107824;-73
2023/08/03 00:55:04;;;;;;;;;;;;;;;20.16;58.01;98955.63;5034581;27;124381;-73
2023/08/03 00:57:32;;;;;;;;;;;;;;;20.16;57.78;98961.84;5051356;27;124287;-73
2023/08/03 00:59:59;;;;;;;;;;;;;;;20.18;57.83;98958.97;5027235;27;108531;-73
2023/08/03 01:02:26;;;;;;;;;;;;;;;20.20;57.78;98967.69;5050163;27;108704;-72
2023/08/03 01:04:53;;;;;;;;;;;;;;;20.20;57.97;98978.44;5036306;27;123997;-73
2023/08/03 01:07:21;;;;;;;;;;;;;;;20.20;57.95;98979.28;5054150;27;122514;-73
2023/08/03 01:09:48;;;;;;;;;;;;;;;20.21;57.97;98985.47;5053061;27;109849;-73
2023/08/03 01:12:16;;;;;;;;;;;;;;;20.23;57.89;98978.09;5037709;27;108493;-73
2023/08/03 01:14:44;;;;;;;;;;;;;;;20.24;57.95;98974.38;5050892;27;124132;-73
2023/08/03 01:17:11;;;;;;;;;;;;;;;20.27;57.98;98974.03;5033867;27;123719;-73
2023/08/03 01:19:38;;;;;;;;;;;;;;;20.28;57.97;98985.63;5049241;27;110399;-73
2023/08/03 01:22:08;;;;;;;;;;;;;;;20.30;58.04;98999.72;5036234;27;109054;-74
2023/08/03 01:24:35;;;;;;;;;;;;;;;20.30;57.93;99000.56;5051409;27;124513;-74
2023/08/03 01:27:02;;;;;;;;;;;;;;;20.32;57.96;99003.91;5037936;27;123005;-73
2023/08/03 01:29:30;;;;;;;;;;;;;;;20.32;58.10;99003.91;5043924;27;108799;-73
2023/08/03 01:31:59;;;;;;;;;;;;;;;20.33;58.04;99010.97;5054147;27;108091;-74
2023/08/03 01:34:27;;;;;;;;;;;;;;;20.32;58.06;99014.66;5034671;27;123117;-74
2023/08/03 01:36:54;;;;;;;;;;;;;;;20.34;58.03;99025.22;5051810;27;123006;-74
2023/08/03 01:39:24;;;;;;;;;;;;;;;20.34;58.07;99028.78;5033691;27;109080;-74
2023/08/03 01:41:51;;;;;;;;;;;;;;;20.35;58.07;99025.06;5047960;27;108097;-74
2023/08/03 01:44:21;;;;;;;;;;;;;;;20.35;58.13;99025.06;5026435;27;124230;-74
2023/08/03 01:46:49;;;;;;;;;;;;;;;20.34;58.11;99028.78;5040356;27;124342;-74
2023/08/03 01:49:16;;;;;;;;;;;;;;;20.33;58.14;99029.78;5037001;27;109067;-73
2023/08/03 01:51:43;;;;;;;;;;;;;;;20.34;58.18;99034.16;5055130;27;109230;-73
2023/08/03 01:54:12;;;;;;;;;;;;;;;20.34;58.13;99039.53;5037351;27;124287;-73
2023/08/03 01:56:39;;;;;;;;;;;;;;;20.33;58.27;99037.84;5043027;27;123241;-73
2023/08/03 01:59:06;;;;;;;;;;;;;;;20.33;58.19;99032.47;5035481;27;108246;-73
2023/08/03 02:01:33;;;;;;;;;;;;;;;20.32;58.20;99036.16;5027852;27;109476;-73
2023/08/03 02:04:01;;;;;;;;;;;;;;;20.32;58.15;99046.91;5048371;27;124487;-73
2023/08/03 02:06:28;;;;;;;;;;;;;;;20.31;58.23;99050.63;5036614;27;123186;-73
2023/08/03 02:08:55;;;;;;;;;;;;;;;20.31;58.16;99053.31;5045555;27;110701;-73
2023/08/03 02:11:26;;;;;;;;;;;;;;;20.32;58.21;99057.66;5048848;27;109780;-73
2023/08/03 02:13:53;;;;;;;;;;;;;;;20.31;58.35;99056.00;5028228;27;123335;-73
2023/08/03 02:16:20;;;;;;;;;;;;;;;20.33;58.36;99053.97;5048982;27;123347;-73
2023/08/03 02:18:51;;;;;;;;;;;;;;;20.35;58.35;99061.88;5037134;27;108513;-73
2023/08/03 02:21:19;;;;;;;;;;;;;;;20.34;58.32;99055.66;5053013;27;108134;-75
2023/08/03 02:23:46;;;;;;;;;;;;;;;20.36;58.29;99059.03;5035359;27;125677;-74
2023/08/03 02:26:14;;;;;;;;;;;;;;;20.36;58.33;99053.63;5034769;27;123138;-74
2023/08/03 02:28:41;;;;;;;;;;;;;;;20.36;58.34;99056.31;5037463;27;109055;-74
2023/08/03 02:31:11;;;;;;;;;;;;;;;20.37;58.26;99055.28;5049915;27;108706;-74
2023/08/03 02:33:44;;;;;;;;;;;;;;;20.38;58.38;99054.28;5033336;27;123293;-73
2023/08/03 02:36:14;;;;;;;;;;;;;;;20.39;58.28;99047.06;5046220;27;123031;-73
2023/08/03 02:38:43;;;;;;;;;;;;;;;20.38;58.29;99046.22;5052190;27;108634;-73
2023/08/03 02:41:10;;;;;;;;;;;;;;;20.38;58.35;99046.22;5052078;27;108986;-74
2023/08/03 02:43:37;;;;;;;;;;;;;;;20.38;58.33;99053.44;5048899;27;124846;-73
2023/08/03 02:46:04;;;;;;;;;;;;;;;20.38;58.44;99057.00;5032939;27;122919;-73
2023/08/03 02:48:33;;;;;;;;;;;;;;;20.37;58.32;99054.47;5033913;27;108178;-73
2023/08/03 02:51:03;;;;;;;;;;;;;;;20.37;58.42;99049.91;5035281;27;107795;-73
2023/08/03 02:53:35;;;;;;;;;;;;;;;20.37;58.43;99049.91;5036041;27;123436;-73
2023/08/03 02:56:04;;;;;;;;;;;;;;;20.37;58.53;99044.53;5043255;27;123551;-73
2023/08/03 02:58:38;;;;;;;;;;;;;;;20.37;58.50;99055.28;5017222;27;112753;-73
2023/08/03 03:01:13;;;;;;;;;;;;;;;20.36;58.53;99059.03;5046021;27;112233;-73
2023/08/03 03:03:41;;;;;;;;;;;;;;;20.36;58.50;99064.41;5033425;27;123918;-73
2023/08/03 03:06:08;;;;;;;;;;;;;;;20.36;58.44;99056.31;5040845;27;123747;-73
2023/08/03 03:08:36;;;;;;;;;;;;;;;20.36;58.41;99064.41;5036318;27;108999;-73
2023/08/03 03:11:04;;;;;;;;;;;;;;;20.35;58.54;99062.69;5035748;27;107796;-73
2023/08/03 03:13:31;;;;;;;;;;;;;;;20.35;58.58;99070.78;5042945;27;123357;-73
2023/08/03 03:15:59;;;;;;;;;;;;;;;20.36;58.51;99064.41;5044967;27;123853;-73
2023/08/03 03:18:27;;;;;;;;;;;;;;;20.35;58.60;99061.88;5033941;27;108513;-73
2023/08/03 03:20:54;;;;;;;;;;;;;;;20.34;58.52;99044.91;5035975;27;107753;-73
2023/08/03 03:23:21;;;;;;;;;;;;;;;20.34;58.60;99050.28;5049992;27;124443;-73
2023/08/03 03:25:48;;;;;;;;;;;;;;;20.33;58.37;99043.22;5034895;27;125735;-73
2023/08/03 03:28:15;;;;;;;;;;;;;;;20.32;58.44;99056.84;5045372;27;109436;-74
2023/08/03 03:30:42;;;;;;;;;;;;;;;20.31;58.51;99055.19;5035451;27;108406;-74
2023/08/03 03:33:09;;;;;;;;;;;;;;;20.30;58.55;99054.31;5033623;27;123220;-74
2023/08/03 03:35:41;;;;;;;;;;;;;;;20.29;58.57;99065.28;5050474;27;124412;-73
2023/08/03 03:38:13;;;;;;;;;;;;;;;20.27;58.60;99076.19;5034497;27;108817;-73
2023/08/03 03:40:41;;;;;;;;;;;;;;;20.26;58.55;99079.06;5047620;27;107905;-73
2023/08/03 03:43:08;;;;;;;;;;;;;;;20.23;58.84;99074.88;5028781;27;123713;-73
2023/08/03 03:45:35;;;;;;;;;;;;;;;20.23;58.67;99080.25;5044096;27;123068;-73
2023/08/03 03:48:02;;;;;;;;;;;;;;;20.21;58.74;99082.25;5037795;27;109436;-73
2023/08/03 03:50:31;;;;;;;;;;;;;;;20.21;58.79;99093.00;5025691;28;109407;-73
2023/08/03 03:52:58;;;;;;;;;;;;;;;20.21;58.84;99098.38;5018729;27;123261;-73
2023/08/03 03:55:27;;;;;;;;;;;;;;;20.20;58.75;99091.34;5036905;27;124133;-72
2023/08/03 03:57:56;;;;;;;;;;;;;;;20.19;58.69;99100.41;5035580;27;108503;-73
2023/08/03 04:00:24;;;;;;;;;;;;;;;20.18;58.81;99109.50;5035339;27;108047;-72
2023/08/03 04:02:52;;;;;;;;;;;;;;;20.16;58.79;99100.78;5034765;27;123866;-72
2023/08/03 04:05:22;;;;;;;;;;;;;;;20.16;58.85;99100.78;5035125;27;123762;-73
2023/08/03 04:07:49;;;;;;;;;;;;;;;20.15;58.91;99109.84;5051041;27;109511;-73
2023/08/03 04:10:16;;;;;;;;;;;;;;;20.13;58.80;99111.88;5049289;27;108598;-73
2023/08/03 04:12:44;;;;;;;;;;;;;;;20.13;58.96;99128.00;5015797;27;124885;-74
2023/08/03 04:15:11;;;;;;;;;;;;;;;20.12;58.95;99126.34;5031427;27;125140;-74
2023/08/03 04:17:38;;;;;;;;;;;;;;;20.11;58.98;99130.03;5033463;27;109068;-72
2023/08/03 04:20:10;;;;;;;;;;;;;;;20.11;58.99;99140.78;5049859;27;108817;-75
2023/08/03 04:22:37;;;;;;;;;;;;;;;20.09;59.01;99142.78;5034331;27;123167;-71
2023/08/03 04:25:04;;;;;;;;;;;;;;;20.08;59.06;99146.47;5051866;27;123119;-74
2023/08/03 04:27:32;;;;;;;;;;;;;;;20.08;58.94;99151.84;5033471;27;108790;-71
2023/08/03 04:30:00;;;;;;;;;;;;;;;20.06;59.02;99164.63;5045132;27;107712;-74
2023/08/03 04:32:31;;;;;;;;;;;;;;;20.07;59.11;99160.94;5029789;27;123983;-73
2023/08/03 04:34:59;;;;;;;;;;;;;;;20.07;59.14;99177.06;5043951;27;123090;-74
2023/08/03 04:37:28;;;;;;;;;;;;;;;20.05;59.21;99171.84;5029024;27;109697;-71
2023/08/03 04:39:55;;;;;;;;;;;;;;;20.05;59.17;99173.72;5047001;27;109211;-71
2023/08/03 04:42:23;;;;;;;;;;;;;;;20.05;59.21;99181.78;5021670;27;123789;-72
2023/08/03 04:44:51;;;;;;;;;;;;;;;20.03;59.29;99182.78;5016759;27;123217;-74
2023/08/03 04:47:20;;;;;;;;;;;;;;;20.05;59.24;99189.84;5031421;27;108818;-74
2023/08/03 04:49:47;;;;;;;;;;;;;;;20.07;59.23;99193.19;5046560;27;108901;-73
2023/08/03 04:52:14;;;;;;;;;;;;;;;20.07;59.24;99188.66;5038018;27;124433;-74
2023/08/03 04:54:41;;;;;;;;;;;;;;;20.09;59.31;99196.53;5029761;27;123776;-73
2023/08/03 04:57:08;;;;;;;;;;;;;;;20.10;59.30;99203.59;5038452;27;108071;-73
2023/08/03 04:59:39;;;;;;;;;;;;;;;20.10;59.30;99208.97;5050681;27;107810;-73
2023/08/03 05:02:06;;;;;;;;;;;;;;;20.11;59.31;99200.72;5036532;27;123429;-71
2023/08/03 05:04:33;;;;;;;;;;;;;;;20.12;59.28;99201.59;5038674;27;123441;-71
2023/08/03 05:07:02;;;;;;;;;;;;;;;20.14;59.32;99204.94;5047090;27;108901;-72
2023/08/03 05:09:30;;;;;;;;;;;;;;;20.15;59.26;99206.59;5049676;27;107945;-72
2023/08/03 05:11:57;;;;;;;;;;;;;;;20.16;59.19;99213.69;5034324;27;123739;-72
2023/08/03 05:14:24;;;;;;;;;;;;;;;20.18;59.30;99217.03;5037979;27;123706;-72
2023/08/03 05:16:51;;;;;;;;;;;;;;;20.19;59.32;99218.69;5035145;27;109483;-72
2023/08/03 05:19:18;;;;;;;;;;;;;;;20.20;59.44;99225.75;5049250;27;109197;-72
2023/08/03 05:21:46;;;;;;;;;;;;;;;20.20;59.31;99231.97;5047130;27;125139;-72
2023/08/03 05:24:13;;;;;;;;;;;;;;;20.20;59.38;99233.81;5053883;27;124166;-72
2023/08/03 05:26:41;;;;;;;;;;;;;;;20.19;59.32;99234.81;5050822;27;110716;-72
2023/08/03 05:29:08;;;;;;;;;;;;;;;20.20;59.35;99237.34;5051295;27;108554;-74
2023/08/03 05:31:35;;;;;;;;;;;;;;;20.20;59.36;99241.88;5051360;27;124266;-74
2023/08/03 05:34:02;;;;;;;;;;;;;;;20.20;59.26;99252.63;5032192;27;124365;-74
2023/08/03 05:36:29;;;;;;;;;;;;;;;20.19;59.30;99250.94;5048735;27;110013;-74
2023/08/03 05:38:56;;;;;;;;;;;;;;;20.18;59.31;99246.59;5051861;27;109795;-74
2023/08/03 05:41:27;;;;;;;;;;;;;;;20.18;59.40;99257.34;5053979;27;124254;-74
2023/08/03 05:43:54;;;;;;;;;;;;;;;20.17;59.39;99263.72;5038984;27;123045;-75
2023/08/03 05:46:21;;;;;;;;;;;;;;;20.17;59.38;99279.84;5031530;27;109691;-75
2023/08/03 05:48:52;;;;;;;;;;;;;;;20.17;59.41;99279.84;5052817;27;109013;-75
2023/08/03 05:51:24;;;;;;;;;;;;;;;20.18;59.47;99277.00;5019810;27;123899;-75
2023/08/03 05:53:51;;;;;;;;;;;;;;;20.19;59.54;99288.59;5050431;27;124009;-74
2023/08/03 05:56:19;;;;;;;;;;;;;;;20.21;59.44;99281.19;5046642;27;109839;-72
2023/08/03 05:58:50;;;;;;;;;;;;;;;20.21;59.38;99302.69;5033592;27;108513;-74
2023/08/03 06:01:21;;;;;;;;;;;;;;;20.23;59.55;99289.94;5037078;27;123839;-74
2023/08/03 06:03:50;;;;;;;;;;;;;;;20.23;59.55;99289.94;5040017;27;123205;-75
2023/08/03 06:06:18;;;;;;;;;;;;;;;20.26;59.54;99297.66;5036520;27;108176;-74
2023/08/03 06:08:47;;;;;;;;;;;;;;;20.29;59.54;99310.78;5045755;27;109177;-74
2023/08/03 06:11:15;;;;;;;;;;;;;;;20.32;59.67;99310.41;5051798;27;124172;-75
2023/08/03 06:13:52;;;;;;;;;;;;;;;20.37;59.47;99318.81;5026663;27;123851;-74
2023/08/03 06:16:21;;;;;;;;;;;;;;;20.42;59.68;99316.47;5048639;27;111027;-74
2023/08/03 06:18:49;;;;;;;;;;;;;;;20.49;59.66;99321.16;5028068;27;109677;-74
2023/08/03 06:21:17;;;;;;;;;;;;;;;20.52;59.72;99323.50;5025911;27;123173;-74
2023/08/03 06:23:45;;;;;;;;;;;;;;;20.55;59.55;99328.53;5050625;27;124658;-74
2023/08/03 06:26:13;;;;;;;;;;;;;;;20.59;59.71;99327.22;5049283;27;109819;-74
2023/08/03 06:28:40;;;;;;;;;;;;;;;20.62;59.54;99326.88;5049759;27;108921;-74
2023/08/03 06:31:15;;;;;;;;;;;;;;;20.64;59.46;99324.84;5035782;27;124752;-73
2023/08/03 06:33:43;;;;;;;;;;;;;;;20.65;59.63;99337.31;5046327;27;123866;-74
2023/08/03 06:36:13;;;;;;;;;;;;;;;20.67;59.59;99346.03;5044124;27;109895;-74
2023/08/03 06:38:40;;;;;;;;;;;;;;;20.68;59.58;99342.34;5045950;27;108913;-75
2023/08/03 06:41:08;;;;;;;;;;;;;;;20.74;59.61;99351.59;5044079;27;124281;-75
2023/08/03 06:43:35;;;;;;;;;;;;;;;20.77;59.62;99352.06;5037134;27;125103;-75
2023/08/03 06:46:02;;;;;;;;;;;;;;;20.80;59.65;99362.50;5047135;27;109566;-75
2023/08/03 06:48:30;;;;;;;;;;;;;;;20.85;59.57;99366.50;5029296;27;108732;-75
2023/08/03 06:50:57;;;;;;;;;;;;;;;20.86;59.46;99365.50;5037754;27;123207;-75
2023/08/03 06:53:24;;;;;;;;;;;;;;;20.88;59.51;99371.56;5049409;27;123895;-75
2023/08/03 06:55:51;;;;;;;;;;;;;;;20.87;59.38;99367.19;5034865;27;109889;-75
2023/08/03 06:58:18;;;;;;;;;;;;;;;20.88;59.49;99375.09;5049431;27;108905;-75
2023/08/03 07:00:45;;;;;;;;;;;;;;;20.88;59.50;99375.09;5042369;27;125006;-75
2023/08/03 07:03:13;;;;;;;;;;;;;;;20.89;59.53;99381.31;5033790;27;123570;-75
2023/08/03 07:05:40;;;;;;;;;;;;;;;20.88;59.52;99383.16;5031481;27;108900;-75
2023/08/03 07:08:08;;;;;;;;;;;;;;;20.89;59.43;99381.31;5045418;27;109335;-75
2023/08/03 07:10:36;;;;;;;;;;;;;;;20.89;59.47;99386.69;5045225;27;124451;-75
2023/08/03 07:16:05;;;;;;;;;;;;;;;20.86;59.36;99403.19;5088471;22;101034;-76
2023/08/03 07:18:32;;;;;;;;;;;;;;;20.85;59.42;99412.25;4850961;28;108525;-76
2023/08/03 07:21:03;;;;;;;;;;;;;;;20.85;59.43;99393.44;4850524;29;124615;-76
2023/08/03 07:23:30;;;;;;;;;;;;;;;20.86;59.50;99408.56;4840685;29;125019;-76
2023/08/03 07:25:58;;;;;;;;;;;;;;;20.88;59.58;99407.38;4836672;29;110116;-77
2023/08/03 07:28:25;;;;;;;;;;;;;;;20.91;59.55;99408.91;4834201;29;108282;-77
2023/08/03 07:30:52;;;;;;;;;;;;;;;20.93;59.59;99398.81;4836647;29;125752;-77
2023/08/03 07:33:19;;;;;;;;;;;;;;;20.95;59.58;99407.56;4838478;29;124968;-76
2023/08/03 07:35:46;;;;;;;;;;;;;;;20.99;59.59;99414.25;4836704;29;108960;-76
2023/08/03 07:38:12;;;;;;;;;;;;;;;21.03;59.66;99415.59;4838148;28;108208;-76
2023/08/03 07:40:40;;;;;;;;;;;;;;;21.08;59.68;99418.63;4831250;29;125415;-77
2023/08/03 07:43:07;;;;;;;;;;;;;;;21.11;59.52;99420.94;4831059;29;126356;-76
2023/08/03 07:45:37;;;;;;;;;;;;;;;21.13;59.58;99427.00;4834581;29;109555;-76
2023/08/03 07:48:06;;;;;;;;;;;;;;;21.17;59.61;99422.97;4836261;29;109550;-76
2023/08/03 07:50:33;;;;;;;;;;;;;;;21.19;59.55;99442.50;4836282;29;124327;-76
2023/08/03 07:53:00;;;;;;;;;;;;;;;21.20;59.48;99436.06;4830313;29;123982;-77
2023/08/03 07:55:27;;;;;;;;;;;;;;;21.19;59.37;99434.41;4850923;29;110983;-76
2023/08/03 07:57:54;;;;;;;;;;;;;;;21.19;59.34;99439.78;4836129;29;109577;-76
2023/08/03 08:00:21;;;;;;;;;;;;;;;21.18;59.41;99446.19;4835832;29;124641;-77
2023/08/03 08:02:50;;;;;;;;;;;;;;;21.17;59.38;99452.59;4838590;29;124603;-76
2023/08/03 08:05:23;;;;;;;;;;;;;;;21.17;59.34;99466.06;4832735;29;108543;-76
2023/08/03 08:07:52;;;;;;;;;;;;;;;21.16;59.30;99469.75;4834597;28;108693;-76
2023/08/03 08:10:20;;;;;;;;;;;;;;;21.16;59.44;99469.75;4851711;29;124492;-77
2023/08/03 08:12:48;;;;;;;;;;;;;;;21.16;59.36;99469.75;4834605;29;127869;-77
2023/08/03 08:15:15;;;;;;;;;;;;;;;21.17;59.38;99471.44;4838056;29;109675;-76
2023/08/03 08:17:42;;;;;;;;;;;;;;;21.17;59.30;99476.81;4820674;29;108446;-76
2023/08/03 08:20:10;;;;;;;;;;;;;;;21.18;59.37;99494.66;4839672;29;124812;-76
2023/08/03 08:22:37;;;;;;;;;;;;;;;21.18;59.28;99488.44;4850636;29;124360;-76
2023/08/03 08:25:04;;;;;;;;;;;;;;;21.17;59.38;99492.97;4837405;29;108910;-76
2023/08/03 08:27:31;;;;;;;;;;;;;;;21.17;59.29;99492.97;4846682;29;109426;-76
2023/08/03 08:29:59;;;;;;;;;;;;;;;21.17;59.31;99502.88;4835802;29;124253;-77
2023/08/03 08:32:26;;;;;;;;;;;;;;;21.16;59.42;99502.06;4840426;29;124225;-76
2023/08/03 08:34:53;;;;;;;;;;;;;;;21.14;59.45;99509.47;4837828;29;109596;-76
2023/08/03 08:37:20;;;;;;;;;;;;;;;21.12;59.34;99527.66;4840235;29;108487;-75
2023/08/03 08:39:47;;;;;;;;;;;;;;;21.09;59.35;99527.97;4838543;29;123228;-76
2023/08/03 08:42:15;;;;;;;;;;;;;;;21.10;59.42;99528.84;4833078;29;124176;-75
2023/08/03 08:44:42;;;;;;;;;;;;;;;21.07;59.37;99532.69;4837929;29;110867;-75
2023/08/03 08:47:09;;;;;;;;;;;;;;;21.06;59.42;99536.41;4854213;28;108281;-75
2023/08/03 08:49:36;;;;;;;;;;;;;;;21.05;59.46;99548.19;4836331;29;124971;-74
2023/08/03 08:52:08;;;;;;;;;;;;;;;21.05;59.59;99556.25;4835610;29;124764;-75
2023/08/03 08:54:35;;;;;;;;;;;;;;;21.08;59.74;99564.00;4835234;29;109902;-74
2023/08/03 08:57:05;;;;;;;;;;;;;;;21.10;59.54;99561.97;4849663;29;109833;-76
2023/08/03 08:59:42;;;;;;;;;;;;;;;21.12;59.59;99570.72;4836297;29;123697;-75
2023/08/03 09:02:10;;;;;;;;;;;;;;;21.12;59.61;99562.66;4833500;29;123911;-75
2023/08/03 09:04:37;;;;;;;;;;;;;;;21.18;59.69;99570.03;4838485;29;109424;-74
2023/08/03 09:07:04;;;;;;;;;;;;;;;21.25;59.82;99574.75;4819851;29;108236;-74
2023/08/03 09:09:32;;;;;;;;;;;;;;;21.31;59.81;99590.25;4838333;29;124007;-75
2023/08/03 09:11:59;;;;;;;;;;;;;;;21.36;59.57;99585.16;4836372;29;125912;-76
2023/08/03 09:14:26;;;;;;;;;;;;;;;21.40;59.69;99594.63;4833517;29;109617;-75
2023/08/03 09:16:53;;;;;;;;;;;;;;;21.44;59.62;99601.38;4836952;29;109237;-75
2023/08/03 09:19:37;;;;;;;;;;;;;;;21.47;59.60;99595.63;4837195;29;124831;-76
2023/08/03 09:22:25;;;;;;;;;;;;;;;21.47;59.65;99611.78;4831548;29;124421;-74
2023/08/03 09:25:01;;;;;;;;;;;;;;;21.47;59.56;99622.56;4836357;29;110808;-75
2023/08/03 09:27:28;;;;;;;;;;;;;;;21.46;59.54;99626.28;4836582;29;108730;-74
2023/08/03 09:30:01;;;;;;;;;;;;;;;21.46;59.53;99630.84;4837657;29;123919;-75
2023/08/03 09:32:34;;;;;;;;;;;;;;;21.46;59.57;99631.69;4839261;29;123264;-74
2023/08/03 09:35:02;;;;;;;;;;;;;;;21.46;59.50;99639.75;4839738;29;111366;-74
2023/08/03 09:37:35;;;;;;;;;;;;;;;21.46;59.53;99642.44;4843753;29;110470;-75
2023/08/03 09:40:05;;;;;;;;;;;;;;;21.46;59.55;99653.22;4837655;29;123054;-75
2023/08/03 09:42:32;;;;;;;;;;;;;;;21.47;59.62;99652.19;4838057;29;124636;-75
2023/08/03 09:45:02;;;;;;;;;;;;;;;21.49;59.63;99647.50;4834654;29;109444;-75
2023/08/03 09:47:30;;;;;;;;;;;;;;;21.53;59.70;99670.41;4838139;29;108281;-75
2023/08/03 09:49:57;;;;;;;;;;;;;;;21.62;59.94;99670.38;4845961;29;124285;-75
2023/08/03 09:52:26;;;;;;;;;;;;;;;21.69;59.84;99668.69;4820046;29;123421;-74
2023/08/03 09:54:56;;;;;;;;;;;;;;;21.76;59.84;99680.50;4835660;29;109777;-75
2023/08/03 09:57:29;;;;;;;;;;;;;;;21.82;59.82;99687.06;4837346;29;109250;-75
2023/08/03 10:00:00;;;;;;;;;;;;;;;21.86;59.62;99696.47;4836514;29;125500;-74
2023/08/03 10:02:55;;;;;;;;;;;;;;;21.89;59.80;99702.38;4823750;29;125224;-75
2023/08/03 10:05:24;;;;;;;;;;;;;;;21.94;59.73;99709.94;4838565;29;109455;-74
2023/08/03 10:08:04;;;;;;;;;;;;;;;21.99;59.66;99718.38;4847782;29;109645;-74
2023/08/03 10:10:35;;;;;;;;;;;;;;;22.08;60.05;99722.72;4851222;28;126218;-74
2023/08/03 10:13:04;;;;;;;;;;;;;;;22.20;59.86;99725.91;4830830;29;124029;-75
2023/08/03 10:15:31;;;;;;;;;;;;;;;22.33;60.03;99731.63;4837237;29;109514;-75
2023/08/03 10:18:04;;;;;;;;;;;;;;;22.46;59.98;99725.69;4837640;29;108936;-74
2023/08/03 10:20:32;;;;;;;;;;;;;;;22.57;59.88;99732.59;4837435;29;125574;-75
2023/08/03 10:23:08;;;;;;;;;;;;;;;22.73;60.11;99743.31;4838063;28;123242;-75
2023/08/03 10:25:54;;;;;;;;;;;;;;;22.87;59.86;99749.00;4832026;29;110848;-75
2023/08/03 10:28:22;;;;;;;;;;;;;;;23.03;59.97;99743.53;4830103;29;109680;-75
2023/08/03 10:31:05;;;;;;;;;;;;;;;23.19;60.08;99741.75;4827311;29;125148;-75
2023/08/03 10:33:49;;;;;;;;;;;;;;;23.39;60.04;99747.53;4825421;29;123641;-76
2023/08/03 10:36:28;;;;;;;;;;;;;;;23.56;59.79;99748.25;4833509;29;109295;-74
2023/08/03 10:39:04;;;;;;;;;;;;;;;23.70;59.76;99755.59;4834207;29;109256;-74
2023/08/03 10:41:42;;;;;;;;;;;;;;;23.82;59.45;99748.75;4833468;29;125852;-75
2023/08/03 10:44:09;;;;;;;;;;;;;;;23.95;59.63;99753.53;4832022;29;123433;-76
2023/08/03 10:46:40;;;;;;;;;;;;;;;24.07;59.41;99751.22;4829532;29;110168;-77
2023/08/03 10:49:23;;;;;;;;;;;;;;;24.19;59.52;99766.00;4830132;29;110333;-77
2023/08/03 10:51:51;;;;;;;;;;;;;;;24.33;59.63;99763.50;4831693;29;124797;-75
2023/08/03 10:54:28;;;;;;;;;;;;;;;24.47;59.70;99768.09;4834333;29;124129;-75
2023/08/03 10:57:05;;;;;;;;;;;;;;;24.61;59.27;99774.56;4828712;29;109104;-74
2023/08/03 10:59:35;;;;;;;;;;;;;;;24.66;59.11;99772.97;4848180;29;108237;-75
2023/08/03 11:02:20;;;;;;;;;;;;;;;24.68;58.91;99786.34;4833028;29;123498;-76
2023/08/03 11:04:50;;;;;;;;;;;;;;;24.62;58.62;99782.50;4828776;29;125236;-75
2023/08/03 11:07:25;;;;;;;;;;;;;;;24.53;58.58;99797.16;4833032;29;109526;-76
2023/08/03 11:09:53;;;;;;;;;;;;;;;24.46;58.73;99788.06;4837297;29;108542;-76
2023/08/03 11:12:23;;;;;;;;;;;;;;;24.44;58.86;99800.94;4837246;29;124315;-75
2023/08/03 11:14:52;;;;;;;;;;;;;;;24.47;58.70;99792.47;4831132;29;124900;-75
2023/08/03 11:17:20;;;;;;;;;;;;;;;24.50;59.00;99800.19;4846680;28;111041;-76
2023/08/03 11:19:48;;;;;;;;;;;;;;;24.56;58.79;99794.06;4836846;29;109977;-76
2023/08/03 11:22:15;;;;;;;;;;;;;;;24.60;59.09;99800.81;4833022;29;126631;-75
2023/08/03 11:24:42;;;;;;;;;;;;;;;24.61;58.72;99812.47;4816644;29;124935;-75
2023/08/03 11:27:11;;;;;;;;;;;;;;;24.62;58.78;99831.25;4825737;29;109058;-76
2023/08/03 11:29:39;;;;;;;;;;;;;;;24.65;58.43;99825.44;4821222;29;108003;-75
2023/08/03 11:32:11;;;;;;;;;;;;;;;24.64;58.83;99842.72;4833596;29;124073;-76
2023/08/03 11:34:39;;;;;;;;;;;;;;;24.68;58.62;99829.66;4847345;29;124018;-75
2023/08/03 11:37:10;;;;;;;;;;;;;;;24.73;58.62;99848.03;4825891;29;109909;-75
2023/08/03 11:39:37;;;;;;;;;;;;;;;24.79;58.59;99847.28;4834944;29;110028;-75
2023/08/03 11:42:06;;;;;;;;;;;;;;;24.88;58.98;99846.16;4842104;29;125076;-75
2023/08/03 11:44:37;;;;;;;;;;;;;;;24.99;58.58;99847.56;4837187;29;124125;-75
2023/08/03 11:47:11;;;;;;;;;;;;;;;25.04;58.38;99858.69;4842001;29;110517;-75
2023/08/03 11:49:38;;;;;;;;;;;;;;;24.99;58.37;99870.09;4830580;29;109005;-75
2023/08/03 11:52:06;;;;;;;;;;;;;;;24.90;58.24;99876.63;4829265;29;123989;-75
2023/08/03 11:54:34;;;;;;;;;;;;;;;24.78;57.98;99867.28;4831560;29;123612;-75
2023/08/03 12:00:06;;;;;;;;;;;;;;;24.32;57.59;99910.66;4798944;29;96886;-77
2023/08/03 12:02:41;;;;;;;;;;;;;;;24.05;57.71;99921.88;4826212;29;124713;-75
2023/08/03 12:05:08;;;;;;;;;;;;;;;23.81;57.76;99928.25;4843255;29;124702;-76
2023/08/03 12:07:51;;;;;;;;;;;;;;;23.61;57.75;99932.41;4830951;29;109276;-76
2023/08/03 12:10:21;;;;;;;;;;;;;;;23.45;57.93;99942.25;4846084;29;109727;-76
2023/08/03 12:12:48;;;;;;;;;;;;;;;23.32;58.01;99948.22;4830306;29;123179;-76
2023/08/03 12:15:15;;;;;;;;;;;;;;;23.21;58.34;99950.47;4850967;29;123720;-76
2023/08/03 12:17:42;;;;;;;;;;;;;;;23.11;58.24;99967.69;4846243;29;110412;-76
2023/08/03 12:20:09;;;;;;;;;;;;;;;23.00;58.40;99970.72;4831384;29;109037;-76
2023/08/03 12:22:36;;;;;;;;;;;;;;;22.86;58.24;99982.22;4835789;29;124214;-76
2023/08/03 12:25:04;;;;;;;;;;;;;;;22.74;58.46;99984.41;4832611;29;126565;-75
2023/08/03 12:27:31;;;;;;;;;;;;;;;22.63;58.43;99990.16;4833032;29;109390;-75
2023/08/03 12:29:58;;;;;;;;;;;;;;;22.51;58.43;99997.75;4826169;29;108530;-76
2023/08/03 12:32:25;;;;;;;;;;;;;;;22.43;58.57;99995.03;4823389;29;125128;-76
2023/08/03 12:34:53;;;;;;;;;;;;;;;22.32;58.62;100010.53;4834586;29;123360;-76
2023/08/03 12:37:20;;;;;;;;;;;;;;;22.23;58.62;100011.50;4831247;29;110079;-76
2023/08/03 12:39:47;;;;;;;;;;;;;;;22.16;58.78;100010.47;4822906;29;108096;-75
2023/08/03 12:42:14;;;;;;;;;;;;;;;22.11;58.81;100020.88;4849874;29;125327;-76
2023/08/03 12:44:48;;;;;;;;;;;;;;;22.07;59.05;100024.94;4826216;29;124292;-76
2023/08/03 12:47:15;;;;;;;;;;;;;;;22.06;59.03;100025.94;4834117;29;109917;-75
2023/08/03 12:49:42;;;;;;;;;;;;;;;22.05;59.07;100041.25;4835479;29;110323;-76